createdAt,value
2018-12-18T12:18:17.090Z,91.00
2018-12-18T12:20:45.462Z,90.80
2018-12-18T12:23:13.954Z,90.60
2018-12-18T12:25:43.075Z,90.50
2018-12-18T12:28:11.469Z,90.40
2018-12-18T12:30:40.372Z,90.20
2018-12-18T12:33:08.807Z,90.80
2018-12-18T12:35:37.477Z,90.10
2018-12-18T12:38:05.951Z,90.10
2018-12-18T12:40:34.296Z,90.00
2018-12-18T12:43:02.966Z,89.70
2018-12-18T12:45:31.738Z,89.40
2018-12-18T12:48:02.774Z,89.20
2018-12-18T12:50:31.645Z,89.20
2018-12-18T12:53:06.931Z,89.50
2018-12-18T12:55:35.727Z,90.10
2018-12-18T12:58:04.515Z,89.40
2018-12-18T13:00:33.240Z,89.70
2018-12-18T13:03:02.260Z,90.00
2018-12-18T13:05:31.134Z,90.00
2018-12-18T13:07:59.836Z,89.80
2018-12-18T13:10:28.460Z,90.10
2018-12-18T13:12:57.571Z,89.20
2018-12-18T13:15:26.230Z,89.20
2018-12-18T13:17:54.924Z,89.10
2018-12-18T13:20:23.858Z,88.60
2018-12-18T13:22:52.552Z,88.60
2018-12-18T13:25:21.569Z,88.60
2018-12-18T13:27:50.001Z,88.40
2018-12-18T13:30:19.047Z,88.40
2018-12-18T13:32:48.113Z,88.70
2018-12-18T13:35:16.506Z,88.70
2018-12-18T13:37:45.250Z,88.40
2018-12-18T13:40:13.983Z,88.70
2018-12-18T13:42:42.331Z,89.20
2018-12-18T13:45:11.064Z,88.80
2018-12-18T13:47:39.936Z,88.70
2018-12-18T13:50:09.133Z,89.00
2018-12-18T13:52:37.946Z,89.10
2018-12-18T13:55:06.389Z,89.60
2018-12-18T13:57:35.052Z,89.80
2018-12-18T14:00:03.507Z,89.60
2018-12-18T14:02:32.277Z,89.80
2018-12-18T14:05:01.293Z,89.60
2018-12-18T14:07:30.045Z,89.70
2018-12-18T14:09:58.816Z,90.00
2018-12-18T14:12:27.239Z,90.00
2018-12-18T14:14:56.470Z,90.30
2018-12-18T14:17:25.389Z,89.70
2018-12-18T14:19:54.034Z,89.70
2018-12-18T14:22:22.649Z,89.20
2018-12-18T14:24:52.095Z,90.00
2018-12-18T14:27:21.302Z,89.80
2018-12-18T14:29:49.744Z,90.00
2018-12-18T14:32:18.416Z,90.00
2018-12-18T14:34:47.093Z,90.10
2018-12-18T14:37:15.813Z,90.00
2018-12-18T14:39:44.524Z,90.30
2018-12-18T14:42:12.984Z,90.30
2018-12-18T14:44:42.072Z,90.50
2018-12-18T14:47:10.741Z,90.70
2018-12-18T14:49:39.143Z,90.60
2018-12-18T14:52:07.544Z,90.70
2018-12-18T14:54:35.957Z,90.90
2018-12-18T14:57:04.598Z,90.80
2018-12-18T14:59:33.257Z,91.10
2018-12-18T15:02:01.739Z,91.40
2018-12-18T15:04:30.166Z,91.40
2018-12-18T15:07:02.770Z,91.50
2018-12-18T15:09:29.663Z,92.10
2018-12-18T15:11:58.636Z,92.00
2018-12-18T15:14:27.270Z,91.80
2018-12-18T15:16:55.848Z,92.00
2018-12-18T15:19:24.590Z,91.80
2018-12-18T15:21:53.299Z,92.20
2018-12-18T15:24:22.753Z,91.90
2018-12-18T15:26:51.443Z,92.10
2018-12-18T15:29:19.889Z,92.20
2018-12-18T15:31:48.655Z,92.10
2018-12-18T15:34:17.823Z,92.50
2018-12-18T15:36:46.577Z,92.50
2018-12-18T15:39:15.341Z,92.40
2018-12-18T15:41:43.928Z,92.50
2018-12-18T15:44:12.546Z,93.00
2018-12-18T15:46:41.484Z,93.10
2018-12-18T15:49:10.232Z,91.40
2018-12-18T15:51:38.846Z,91.80
2018-12-18T15:54:07.872Z,91.90
2018-12-18T15:56:36.300Z,91.90
2018-12-18T15:59:05.070Z,92.10
2018-12-18T16:01:33.431Z,92.00
2018-12-18T16:04:02.322Z,91.90
2018-12-18T16:06:30.766Z,92.10
2018-12-18T16:09:00.612Z,91.90
2018-12-18T16:11:30.385Z,92.30
2018-12-18T16:13:59.116Z,92.10
2018-12-18T16:19:06.999Z,91.90
2018-12-18T16:21:35.358Z,92.10
2018-12-18T16:24:03.992Z,92.10
2018-12-18T16:26:32.650Z,92.30
2018-12-18T16:29:01.879Z,92.40
2018-12-18T16:31:30.228Z,92.30
2018-12-18T16:33:58.630Z,92.30
2018-12-18T16:36:27.626Z,92.20
2018-12-18T16:38:56.331Z,92.20
2018-12-18T16:41:24.810Z,92.50
2018-12-18T16:43:53.491Z,92.10
2018-12-18T16:46:22.457Z,92.10
2018-12-18T16:48:52.175Z,92.10
2018-12-18T16:51:20.723Z,92.40
2018-12-18T16:53:49.093Z,92.30
2018-12-18T16:56:17.797Z,92.90
2018-12-18T16:58:46.160Z,92.70
2018-12-18T17:01:14.970Z,92.30
2018-12-18T17:03:43.696Z,92.10
2018-12-18T17:06:12.039Z,92.30
2018-12-18T17:08:41.350Z,92.70
2018-12-18T17:11:11.028Z,92.60
2018-12-18T17:13:40.459Z,92.70
2018-12-18T17:16:09.146Z,92.80
2018-12-18T17:18:38.368Z,92.60
2018-12-18T17:21:06.759Z,92.70
2018-12-18T17:23:35.239Z,92.90
2018-12-18T17:26:04.196Z,92.90
2018-12-18T17:28:32.981Z,92.80
2018-12-18T17:31:01.701Z,92.50
2018-12-18T17:33:30.414Z,92.70
2018-12-18T17:35:59.452Z,92.70
2018-12-18T17:38:28.231Z,92.50
2018-12-18T17:40:56.720Z,92.60
2018-12-18T17:43:25.633Z,92.40
2018-12-18T17:45:54.243Z,92.50
2018-12-18T17:48:22.753Z,92.30
2018-12-18T17:50:51.764Z,92.50
2018-12-18T17:53:21.464Z,93.20
2018-12-18T17:55:49.936Z,93.30
2018-12-18T17:58:18.588Z,92.80
2018-12-18T18:00:47.312Z,92.70
2018-12-18T18:03:15.732Z,92.70
2018-12-18T18:05:44.673Z,92.70
2018-12-18T18:08:13.305Z,92.90
2018-12-18T18:10:41.697Z,92.80
2018-12-18T18:13:10.475Z,92.80
2018-12-18T18:15:39.099Z,92.80
2018-12-18T18:18:07.773Z,92.70
2018-12-18T18:20:36.533Z,93.10
2018-12-18T18:23:05.188Z,92.60
2018-12-18T18:25:33.870Z,92.90
2018-12-18T18:28:02.286Z,92.80
2018-12-18T18:30:31.282Z,92.90
2018-12-18T18:32:59.782Z,92.70
2018-12-18T18:35:28.170Z,92.80
2018-12-18T18:37:57.257Z,92.90
2018-12-18T18:40:26.247Z,92.90
2018-12-18T18:42:55.264Z,92.70
2018-12-18T18:45:23.667Z,93.00
2018-12-18T18:47:52.746Z,93.30
2018-12-18T18:50:21.419Z,93.60
2018-12-18T18:52:50.566Z,93.00
2018-12-18T18:55:19.036Z,93.10
2018-12-18T18:57:48.180Z,93.20
2018-12-18T19:00:17.408Z,93.10
2018-12-18T19:02:45.771Z,93.10
2018-12-18T19:05:14.568Z,93.10
2018-12-18T19:07:43.286Z,93.50
2018-12-18T19:10:11.679Z,93.90
2018-12-18T19:12:40.361Z,93.80
2018-12-18T19:15:09.720Z,93.80
2018-12-18T19:17:38.692Z,93.80
2018-12-18T19:20:07.469Z,93.90
2018-12-18T19:22:35.874Z,93.10
2018-12-18T19:25:04.990Z,93.30
2018-12-18T19:27:33.421Z,93.30
2018-12-18T19:30:08.209Z,93.30
2018-12-18T19:32:37.737Z,93.40
2018-12-18T19:35:07.234Z,93.30
2018-12-18T19:37:35.629Z,93.10
2018-12-18T19:40:04.098Z,93.30
2018-12-18T19:42:33.317Z,93.30
2018-12-18T19:45:02.739Z,93.40
2018-12-18T19:47:31.183Z,93.30
2018-12-18T19:50:00.255Z,93.20
2018-12-18T19:52:29.629Z,93.20
2018-12-18T19:54:58.468Z,93.10
2018-12-18T19:57:26.876Z,93.50
2018-12-18T19:59:56.059Z,93.70
2018-12-18T20:02:25.002Z,93.70
2018-12-18T20:04:53.702Z,93.70
2018-12-18T20:07:22.579Z,93.50
2018-12-18T20:09:51.327Z,93.50
2018-12-18T20:12:20.642Z,93.40
2018-12-18T20:14:49.278Z,93.50
2018-12-18T20:17:17.987Z,93.50
2018-12-18T20:19:47.371Z,93.50
2018-12-18T20:22:16.077Z,93.40
2018-12-18T20:24:44.443Z,93.20
2018-12-18T20:27:12.828Z,93.50
2018-12-18T20:29:41.878Z,93.60
2018-12-18T20:32:10.620Z,93.70
2018-12-18T20:34:39.317Z,93.50
2018-12-18T20:37:08.503Z,93.40
2018-12-18T20:39:36.954Z,93.50
2018-12-18T20:42:05.835Z,93.70
2018-12-18T20:44:34.325Z,93.70
2018-12-18T20:47:03.068Z,93.90
2018-12-18T20:49:31.738Z,93.60
2018-12-18T20:52:00.764Z,93.70
2018-12-18T20:54:29.446Z,94.20
2018-12-18T20:56:58.457Z,93.90
2018-12-18T20:59:28.261Z,93.80
2018-12-18T21:01:57.098Z,93.70
2018-12-18T21:04:26.440Z,93.80
2018-12-18T21:06:55.675Z,93.80
2018-12-18T21:09:24.069Z,93.80
2018-12-18T21:11:53.048Z,94.20
2018-12-18T21:14:21.787Z,93.90
2018-12-18T21:16:50.447Z,93.90
2018-12-18T21:19:19.293Z,93.90
2018-12-18T21:21:48.069Z,93.90
2018-12-18T21:24:16.447Z,93.80
2018-12-18T21:26:45.126Z,93.80
2018-12-18T21:29:13.493Z,93.80
2018-12-18T21:31:42.196Z,93.80
2018-12-18T21:34:10.630Z,93.80
2018-12-18T21:36:39.333Z,94.20
2018-12-18T21:39:09.224Z,93.70
2018-12-18T21:41:37.936Z,93.80
2018-12-18T21:44:06.309Z,93.80
2018-12-18T21:46:35.641Z,93.70
2018-12-18T21:49:04.500Z,93.70
2018-12-18T21:51:33.039Z,93.60
2018-12-18T21:54:01.962Z,93.70
2018-12-18T21:56:30.378Z,94.10
2018-12-18T21:58:59.784Z,93.80
2018-12-18T22:01:28.503Z,93.70
2018-12-18T22:03:57.690Z,93.80
2018-12-18T22:06:26.039Z,93.70
2018-12-18T22:08:54.718Z,93.50
2018-12-18T22:11:23.752Z,93.60
2018-12-18T22:13:52.489Z,93.60
2018-12-18T22:16:21.362Z,93.60
2018-12-18T22:18:50.133Z,93.70
2018-12-18T22:21:19.413Z,93.70
2018-12-18T22:23:48.153Z,93.70
2018-12-18T22:26:16.934Z,93.80
2018-12-18T22:28:45.820Z,93.80
2018-12-18T22:31:14.945Z,93.70
2018-12-18T22:33:43.598Z,93.70
2018-12-18T22:36:11.984Z,93.70
2018-12-18T22:38:43.765Z,93.80
2018-12-18T22:41:12.047Z,93.80
2018-12-18T22:43:40.634Z,93.70
2018-12-18T22:46:09.358Z,93.60
2018-12-18T22:48:38.361Z,93.70
2018-12-18T22:51:06.849Z,93.70
2018-12-18T22:53:35.876Z,93.80
2018-12-18T22:56:04.661Z,93.90
2018-12-18T22:58:33.009Z,93.90
2018-12-18T23:01:02.166Z,93.90
2018-12-18T23:03:30.551Z,93.80
2018-12-18T23:06:00.138Z,93.80
2018-12-18T23:08:29.842Z,93.70
2018-12-18T23:10:59.527Z,93.90
2018-12-18T23:13:27.893Z,93.90
2018-12-18T23:15:56.841Z,94.10
2018-12-18T23:18:25.211Z,94.20
2018-12-18T23:20:53.594Z,94.20
2018-12-18T23:23:23.129Z,94.00
2018-12-18T23:25:52.068Z,94.00
2018-12-18T23:28:20.840Z,93.90
2018-12-18T23:30:49.496Z,93.90
2018-12-18T23:33:18.448Z,93.80
2018-12-18T23:35:47.095Z,93.90
2018-12-18T23:38:15.741Z,93.90
2018-12-18T23:40:44.222Z,93.90
2018-12-18T23:43:13.298Z,93.80
2018-12-18T23:45:41.943Z,93.90
2018-12-18T23:48:11.422Z,93.90
2018-12-18T23:50:40.082Z,93.90
2018-12-18T23:53:08.439Z,93.80
2018-12-18T23:55:37.227Z,93.90
2018-12-18T23:58:05.586Z,94.00
